Edmonds, Washington
Current Conditions -  °F | °C
As of 1:53 PM on Tuesday 25 Nov 2014 (Local Time) from KPAE Reporting Station
Haze Haze  
Wind Chill: 44°   Ceiling: 300
Heat Index: 46°   Visibility: 1.5mi
Dew Point: 44°   Wind: 5mph
Humidity: 93%   Direction: 360°N
Pressure: 30.19"   Gusts: NA
Location:  47.81°N, 122.37°W
Report Text: KPAE 252153Z 36004KT 1 1/2SM BR OVC003 08/07 A3019 RMK AO2 SLP227 T00780067
Loading
Personal Weather Stations






























Interactive Weather Map New forecast layout! Learn more

10-Day Weather Forecast

Advertisements
Track Severe Weather on mobile